Time;durP1;ratioP1;P1;durP2;ratioP2;P2;SDS_P1;SDS_P2;PMS_P1;PMS_P2;Temp;Humidity;BMP_temperature;BMP_pressure;BME280_temperature;BME280_humidity;BME280_pressure;Samples;Min_cycle;Max_cycle;Signal;HPM_P1;HPM_P2
2023/01/20 00:01:25;;;;;;;48.55;17.58;;;;;;;-148.88;100.00;76876.25;5032976;28;20025;-87
2023/01/20 00:03:55;;;;;;;43.00;16.50;;;;;;;-148.88;100.00;76870.16;5033270;28;20538;-87
2023/01/20 00:06:21;;;;;;;39.08;15.18;;;;;;;-148.88;100.00;76874.22;5033417;28;20028;-86
2023/01/20 00:08:57;;;;;;;47.15;17.70;;;;;;;-148.88;100.00;76890.50;5034882;28;20021;-87
2023/01/20 00:11:23;;;;;;;49.22;16.55;;;;;;;-148.88;100.00;76898.63;5037241;28;20021;-86
2023/01/20 00:13:53;;;;;;;45.75;16.83;;;;;;;-148.88;100.00;76890.50;5036828;28;20365;-88
2023/01/20 00:16:18;;;;;;;47.65;16.98;;;;;;;-148.88;100.00;76890.50;5037187;28;20021;-85
2023/01/20 00:18:43;;;;;;;51.58;18.30;;;;;;;-148.88;100.00;76896.59;5037215;28;20025;-87
2023/01/20 00:21:11;;;;;;;51.58;18.92;;;;;;;-148.88;100.00;76902.69;5036699;28;20029;-87
2023/01/20 00:23:37;;;;;;;47.88;17.33;;;;;;;-148.88;100.00;76912.84;5038616;28;20337;-87
2023/01/20 00:26:15;;;;;;;54.78;18.02;;;;;;;-148.88;100.00;76916.91;5037214;28;20028;-88
2023/01/20 00:28:41;;;;;;;43.92;16.50;;;;;;;-148.88;100.00;76904.72;5036896;28;20437;-87
2023/01/20 00:31:24;;;;;;;46.80;18.25;;;;;;;-148.88;100.00;76906.75;5037249;28;20033;-87
2023/01/20 00:33:50;;;;;;;38.80;14.10;;;;;;;-148.88;100.00;76923.00;5037488;28;20025;-87
2023/01/20 00:36:17;;;;;;;44.45;15.32;;;;;;;-148.88;100.00;76920.97;5037541;28;20022;-87
2023/01/20 00:38:43;;;;;;;39.03;15.30;;;;;;;-148.88;100.00;76918.94;5037238;28;20030;-87
2023/01/20 00:41:09;;;;;;;48.17;16.08;;;;;;;-148.88;100.00;76916.91;5037135;28;20372;-88
2023/01/20 00:43:35;;;;;;;39.88;14.60;;;;;;;-148.88;100.00;76931.13;5036914;28;20112;-86
2023/01/20 00:46:01;;;;;;;42.25;15.82;;;;;;;-148.88;100.00;76908.78;5036291;28;20032;-87
2023/01/20 00:48:27;;;;;;;46.80;16.25;;;;;;;-148.88;100.00;76914.88;5036760;28;20368;-88
2023/01/20 00:50:52;;;;;;;46.60;17.20;;;;;;;-148.88;100.00;76931.13;5037927;28;20494;-87
2023/01/20 00:53:17;;;;;;;44.05;15.30;;;;;;;-148.88;100.00;76931.13;5046270;28;20368;-88
2023/01/20 00:55:43;;;;;;;42.40;15.50;;;;;;;-148.88;100.00;76927.06;5036417;28;20075;-87
2023/01/20 00:58:08;;;;;;;42.83;14.90;;;;;;;-148.88;100.00;76910.81;5035929;28;20115;-88
2023/01/20 01:00:34;;;;;;;50.40;17.70;;;;;;;-148.88;100.00;76914.88;5035725;28;20029;-87
2023/01/20 01:02:59;;;;;;;44.83;15.70;;;;;;;-148.88;100.00;76906.75;5036896;28;20021;-87
2023/01/20 01:05:25;;;;;;;44.80;16.45;;;;;;;-148.88;100.00;76888.47;5036442;28;20084;-87
2023/01/20 01:07:54;;;;;;;42.65;15.65;;;;;;;-148.88;100.00;76894.56;5037431;28;20026;-86
2023/01/20 01:10:19;;;;;;;44.60;17.17;;;;;;;-148.88;100.00;76910.81;5040240;28;20384;-87
2023/01/20 01:12:44;;;;;;;48.17;15.98;;;;;;;-148.88;100.00;76912.84;5038422;28;20072;-87
2023/01/20 01:15:12;;;;;;;51.63;19.10;;;;;;;-148.88;100.00;76902.69;5035438;28;20028;-87
2023/01/20 01:17:37;;;;;;;51.08;18.45;;;;;;;-148.88;100.00;76892.53;5037393;28;20029;-87
2023/01/20 01:20:06;;;;;;;51.08;17.38;;;;;;;-148.88;100.00;76896.59;5036496;28;20026;-87
2023/01/20 01:22:31;;;;;;;48.45;16.90;;;;;;;-148.88;100.00;76898.63;5036085;28;20480;-87
2023/01/20 01:24:57;;;;;;;47.22;16.38;;;;;;;-148.88;100.00;76910.81;5035903;28;20063;-87
2023/01/20 01:27:22;;;;;;;47.03;16.83;;;;;;;-148.88;100.00;76920.97;5036741;28;20048;-86
2023/01/20 01:29:48;;;;;;;42.15;14.20;;;;;;;-148.88;100.00;76902.69;5037055;28;20029;-86
2023/01/20 01:32:14;;;;;;;39.90;15.57;;;;;;;-148.88;100.00;76902.69;5120592;23;20131;-84
2023/01/20 01:34:39;;;;;;;40.78;14.32;;;;;;;-148.88;100.00;76910.81;5113512;28;20031;-85
2023/01/20 01:37:04;;;;;;;36.65;14.45;;;;;;;-148.88;100.00;76910.81;5110099;28;20024;-85
2023/01/20 01:39:30;;;;;;;33.55;13.43;;;;;;;-148.88;100.00;76910.81;5111785;28;20079;-85
2023/01/20 01:41:57;;;;;;;41.63;14.82;;;;;;;-148.88;100.00;76910.81;5109981;28;20023;-84
2023/01/20 01:44:37;;;;;;;33.40;12.07;;;;;;;-148.88;100.00;76902.69;5110929;28;20528;-85
2023/01/20 01:47:02;;;;;;;42.35;15.07;;;;;;;-148.88;100.00;76906.75;5111467;28;20031;-84
2023/01/20 01:49:31;;;;;;;35.38;13.32;;;;;;;-148.88;100.00;76902.69;5109590;28;20064;-84
2023/01/20 01:51:59;;;;;;;43.97;14.32;;;;;;;-148.88;100.00;76902.69;5109543;28;20475;-85
2023/01/20 01:54:32;;;;;;;45.50;14.70;;;;;;;-148.88;100.00;76910.81;5109494;28;20049;-85
2023/01/20 01:56:59;;;;;;;35.03;14.47;;;;;;;-148.88;100.00;76918.94;5110219;28;20026;-85
2023/01/20 01:59:24;;;;;;;36.13;13.52;;;;;;;-148.88;100.00;76898.63;5110746;28;20030;-84
2023/01/20 02:01:52;;;;;;;38.10;14.32;;;;;;;-148.88;100.00;76914.88;5105368;28;20051;-84
2023/01/20 02:04:23;;;;;;;33.85;12.13;;;;;;;-148.88;100.00;76902.69;5094815;28;20028;-84
2023/01/20 02:06:52;;;;;;;41.08;14.18;;;;;;;-148.88;100.00;76906.75;5104255;28;20049;-84
2023/01/20 02:09:17;;;;;;;33.92;12.25;;;;;;;-148.88;100.00;76914.88;5097236;28;20513;-84
2023/01/20 02:11:49;;;;;;;36.53;11.95;;;;;;;-148.88;100.00;76918.94;5106845;28;20028;-84
2023/01/20 02:14:17;;;;;;;44.33;16.15;;;;;;;-148.88;100.00;76927.06;5108894;28;20076;-84
2023/01/20 02:17:07;;;;;;;35.45;13.65;;;;;;;-148.88;100.00;76920.97;5123305;28;20020;-84
2023/01/20 02:19:48;;;;;;;40.72;14.85;;;;;;;-148.88;100.00;76916.91;5107050;28;20020;-85
2023/01/20 02:22:35;;;;;;;37.20;14.00;;;;;;;-148.88;100.00;76923.00;5108432;28;20024;-84
2023/01/20 02:25:21;;;;;;;41.45;13.10;;;;;;;-148.88;100.00;76914.88;5107735;28;20032;-84
2023/01/20 02:28:23;;;;;;;39.42;13.82;;;;;;;-148.88;100.00;76916.91;5106794;28;20022;-85
2023/01/20 02:31:35;;;;;;;40.67;13.40;;;;;;;-148.88;100.00;76923.00;5105383;28;20505;-85
2023/01/20 02:34:06;;;;;;;38.08;12.77;;;;;;;-148.88;100.00;76935.19;5106222;28;20027;-84
2023/01/20 02:36:40;;;;;;;41.60;14.73;;;;;;;-148.88;100.00;76935.19;5101023;28;20020;-83
2023/01/20 02:39:35;;;;;;;42.90;14.13;;;;;;;-148.88;100.00;76943.31;5093765;28;20115;-84
2023/01/20 02:42:21;;;;;;;50.53;15.18;;;;;;;-148.88;100.00;76943.31;5095251;28;20077;-83
2023/01/20 02:44:56;;;;;;;47.10;15.50;;;;;;;-148.88;100.00;76935.19;5111432;28;20020;-84
2023/01/20 02:47:30;;;;;;;49.00;16.08;;;;;;;-148.88;100.00;76937.22;5094862;28;20123;-83
2023/01/20 02:50:11;;;;;;;48.17;16.73;;;;;;;-148.88;100.00;76920.97;5097368;28;20028;-84
2023/01/20 02:52:44;;;;;;;52.17;18.42;;;;;;;-148.88;100.00;76925.03;5103585;28;20016;-85
2023/01/20 02:55:14;;;;;;;42.93;16.67;;;;;;;-148.88;100.00;76933.16;5105897;28;20169;-84
2023/01/20 02:57:45;;;;;;;47.00;17.27;;;;;;;-148.88;100.00;76931.13;5105697;28;20020;-84
2023/01/20 03:00:16;;;;;;;48.08;16.83;;;;;;;-148.88;100.00;76951.44;5104706;28;20450;-84
2023/01/20 03:02:44;;;;;;;53.33;16.65;;;;;;;-148.88;100.00;76931.13;5106301;28;20028;-84
2023/01/20 03:05:16;;;;;;;50.67;15.70;;;;;;;-148.88;100.00;76943.31;5104453;28;20027;-85
2023/01/20 03:07:44;;;;;;;55.45;17.92;;;;;;;-148.88;100.00;76955.50;5105885;28;20030;-85
2023/01/20 03:10:15;;;;;;;57.38;17.40;;;;;;;-148.88;100.00;76961.59;5103499;28;20478;-84
2023/01/20 03:12:46;;;;;;;50.13;17.52;;;;;;;-148.88;100.00;76969.72;5095942;28;20110;-84
2023/01/20 03:15:13;;;;;;;52.88;17.42;;;;;;;-148.88;100.00;76967.69;5096289;28;20518;-83
2023/01/20 03:17:39;;;;;;;47.58;16.30;;;;;;;-148.88;100.00;76953.47;5095776;28;20028;-84
2023/01/20 03:20:05;;;;;;;47.65;17.63;;;;;;;-148.88;100.00;76971.75;5094974;28;20120;-84
2023/01/20 03:22:30;;;;;;;49.00;16.63;;;;;;;-148.88;100.00;76955.50;5095657;28;20023;-84
2023/01/20 03:24:57;;;;;;;51.13;17.05;;;;;;;-148.88;100.00;76963.63;5094794;28;20031;-84
2023/01/20 03:27:32;;;;;;;46.95;17.83;;;;;;;-148.88;100.00;76973.78;5096241;28;20031;-84
2023/01/20 03:29:57;;;;;;;42.22;16.65;;;;;;;-148.88;100.00;76971.75;5095858;28;20032;-84
2023/01/20 03:32:28;;;;;;;61.83;16.08;;;;;;;-148.88;100.00;76963.63;5094178;28;20104;-84
2023/01/20 03:35:26;;;;;;;56.45;17.92;;;;;;;-148.88;100.00;76992.06;5095038;28;20070;-84
2023/01/20 03:37:51;;;;;;;56.65;18.45;;;;;;;-148.88;100.00;76963.63;5062579;28;20043;-84
2023/01/20 03:40:39;;;;;;;53.83;18.05;;;;;;;-148.88;100.00;76967.69;5100147;28;20092;-85
2023/01/20 03:43:43;;;;;;;48.08;18.00;;;;;;;-148.88;100.00;76985.97;5099150;28;20393;-85
2023/01/20 03:46:31;;;;;;;49.83;16.67;;;;;;;-148.88;100.00;76963.63;5097139;28;20028;-84
2023/01/20 03:49:25;;;;;;;52.28;19.17;;;;;;;-148.88;100.00;76988.00;5098522;28;20494;-83
2023/01/20 03:52:06;;;;;;;48.42;17.67;;;;;;;-148.88;100.00;76967.69;5114307;28;20028;-83
2023/01/20 03:54:47;;;;;;;58.83;18.23;;;;;;;-148.88;100.00;76975.81;5098454;28;20505;-83
2023/01/20 03:57:19;;;;;;;62.47;20.20;;;;;;;-148.88;100.00;76985.97;5100066;28;20024;-83
2023/01/20 03:59:55;;;;;;;60.38;19.67;;;;;;;-148.88;100.00;76996.13;5097954;28;20024;-84
2023/01/20 04:02:22;;;;;;;60.80;18.73;;;;;;;-148.88;100.00;76975.81;5088598;22;20090;-80
2023/01/20 04:04:49;;;;;;;60.10;18.05;;;;;;;-148.88;100.00;76996.13;5080502;28;20067;-80
2023/01/20 04:07:21;;;;;;;68.53;18.85;;;;;;;-148.88;100.00;76998.16;5080422;28;20020;-80
2023/01/20 04:09:52;;;;;;;63.80;18.85;;;;;;;-148.88;100.00;76992.06;5081437;28;20043;-79
2023/01/20 04:12:18;;;;;;;60.08;18.80;;;;;;;-148.88;100.00;76998.16;5083032;28;20020;-79
2023/01/20 04:14:43;;;;;;;56.45;19.98;;;;;;;-148.88;100.00;77006.31;5081446;28;20025;-80
2023/01/20 04:17:09;;;;;;;59.00;20.83;;;;;;;-148.88;100.00;77004.25;5081379;28;20080;-80
2023/01/20 04:19:34;;;;;;;55.00;18.45;;;;;;;-148.88;100.00;77000.19;5080867;28;20029;-80
2023/01/20 04:22:06;;;;;;;56.22;20.35;;;;;;;-148.88;100.00;77004.25;5081322;28;20051;-80
2023/01/20 04:24:42;;;;;;;65.15;19.55;;;;;;;-148.88;100.00;77008.34;5080185;28;20024;-80
2023/01/20 04:27:07;;;;;;;58.90;18.95;;;;;;;-148.88;100.00;77012.41;5079739;28;20473;-79
2023/01/20 04:29:33;;;;;;;60.55;18.80;;;;;;;-148.88;100.00;77012.41;5081679;28;20040;-80
2023/01/20 04:31:59;;;;;;;56.72;20.02;;;;;;;-148.88;100.00;77016.47;5080671;28;20424;-80
2023/01/20 04:34:25;;;;;;;51.10;17.88;;;;;;;-148.88;100.00;77020.53;5081289;28;20074;-79
2023/01/20 04:36:50;;;;;;;50.15;18.45;;;;;;;-148.88;100.00;77028.66;5081370;28;20021;-80
2023/01/20 04:39:15;;;;;;;53.20;20.17;;;;;;;-148.88;100.00;77028.66;5080089;28;20028;-80
2023/01/20 04:41:40;;;;;;;51.83;18.50;;;;;;;-148.88;100.00;77028.66;5081892;28;20103;-80
2023/01/20 04:44:06;;;;;;;53.00;18.25;;;;;;;-148.88;100.00;77032.72;5080274;28;20028;-80
2023/01/20 04:46:31;;;;;;;57.65;18.55;;;;;;;-148.88;100.00;77030.69;5078860;28;20062;-79
2023/01/20 04:48:56;;;;;;;57.53;20.35;;;;;;;-148.88;100.00;77026.63;5078875;28;20026;-79
2023/01/20 04:51:22;;;;;;;58.28;20.73;;;;;;;-148.88;100.00;77034.75;5079137;28;20051;-80
2023/01/20 04:53:47;;;;;;;84.13;22.60;;;;;;;-148.88;100.00;77032.72;5079132;28;20400;-79
2023/01/20 04:56:14;;;;;;;58.20;21.10;;;;;;;-148.88;100.00;77032.72;5080703;28;20033;-80
2023/01/20 04:58:40;;;;;;;65.90;21.05;;;;;;;-148.88;100.00;77040.84;5078943;28;20021;-80
2023/01/20 05:01:06;;;;;;;59.28;22.60;;;;;;;-148.88;100.00;77036.78;5079714;28;20082;-80
2023/01/20 05:03:31;;;;;;;74.55;23.50;;;;;;;-148.88;100.00;77038.81;5080336;28;20028;-79
2023/01/20 05:05:56;;;;;;;65.03;22.20;;;;;;;-148.88;100.00;77040.84;5079936;28;20024;-79
2023/01/20 05:08:22;;;;;;;59.65;22.77;;;;;;;-148.88;100.00;77044.91;5078874;28;20086;-80
2023/01/20 05:10:47;;;;;;;55.88;21.52;;;;;;;-148.88;100.00;77053.03;5081101;28;20031;-79
2023/01/20 05:13:13;;;;;;;69.45;23.75;;;;;;;-148.88;100.00;77053.03;5079116;28;20052;-80
2023/01/20 05:15:39;;;;;;;67.63;22.33;;;;;;;-148.88;100.00;77061.16;5081109;28;20031;-80
2023/01/20 05:18:04;;;;;;;64.75;22.20;;;;;;;-148.88;100.00;77061.16;5079724;28;20020;-80
2023/01/20 05:20:29;;;;;;;64.25;23.40;;;;;;;-148.88;100.00;77063.19;5079752;28;20084;-79
2023/01/20 05:22:55;;;;;;;65.95;21.90;;;;;;;-148.88;100.00;77065.22;5080052;28;20529;-79
2023/01/20 05:25:20;;;;;;;66.07;24.77;;;;;;;-148.88;100.00;77065.22;5078200;28;20020;-80
2023/01/20 05:27:45;;;;;;;68.10;23.08;;;;;;;-148.88;100.00;77067.25;5078036;28;20078;-79
2023/01/20 05:30:11;;;;;;;66.45;22.13;;;;;;;-148.88;100.00;77067.25;5078516;28;20020;-79
2023/01/20 05:32:36;;;;;;;62.05;23.00;;;;;;;-148.88;100.00;77065.22;5079036;28;20111;-79
2023/01/20 05:35:01;;;;;;;53.92;21.35;;;;;;;-148.88;100.00;77053.03;5078062;28;20020;-79
2023/01/20 05:37:27;;;;;;;63.05;22.60;;;;;;;-148.88;100.00;77057.09;5077896;28;20023;-79
2023/01/20 05:39:52;;;;;;;60.55;21.35;;;;;;;-148.88;100.00;77061.16;5078704;28;20024;-80
2023/01/20 05:42:17;;;;;;;63.42;22.15;;;;;;;-148.88;100.00;77065.22;5078093;28;20120;-79
2023/01/20 05:44:43;;;;;;;63.00;24.73;;;;;;;-148.88;100.00;77061.16;5078257;28;20032;-79
2023/01/20 05:47:08;;;;;;;64.75;21.98;;;;;;;-148.88;100.00;77067.25;5079465;28;20381;-80
2023/01/20 05:49:34;;;;;;;70.43;22.92;;;;;;;-148.88;100.00;77069.28;5078627;28;20024;-80
2023/01/20 05:51:59;;;;;;;65.90;23.00;;;;;;;-148.88;100.00;77063.19;5078455;28;20449;-80
2023/01/20 05:54:25;;;;;;;72.53;22.88;;;;;;;-148.88;100.00;77067.25;5080264;28;20357;-80
2023/01/20 05:56:50;;;;;;;68.47;22.98;;;;;;;-148.88;100.00;77069.28;5079154;28;20017;-79
2023/01/20 05:59:16;;;;;;;65.90;23.65;;;;;;;-148.88;100.00;77071.31;5079261;28;20111;-80
2023/01/20 06:01:41;;;;;;;60.05;20.90;;;;;;;-148.88;100.00;77077.41;5078617;28;20020;-80
2023/01/20 06:04:06;;;;;;;63.25;22.15;;;;;;;-148.88;100.00;77077.41;5078467;28;20385;-79
2023/01/20 06:06:32;;;;;;;63.03;23.73;;;;;;;-148.88;100.00;77083.50;5075952;28;20486;-79
2023/01/20 06:08:57;;;;;;;65.32;23.23;;;;;;;-148.88;100.00;77079.44;5078956;28;20036;-79
2023/01/20 06:11:22;;;;;;;65.60;23.30;;;;;;;-148.88;100.00;77085.53;5077468;28;20039;-79
2023/01/20 06:13:48;;;;;;;60.80;23.08;;;;;;;-148.88;100.00;77077.41;5078816;28;20096;-79
2023/01/20 06:16:15;;;;;;;72.80;23.98;;;;;;;-148.88;100.00;77075.38;5079011;28;20385;-79
2023/01/20 06:18:40;;;;;;;60.17;20.95;;;;;;;-148.88;100.00;77087.56;5078769;28;20017;-81
2023/01/20 06:21:05;;;;;;;65.55;21.83;;;;;;;-148.88;100.00;77079.44;5076314;28;20131;-81
2023/01/20 06:23:31;;;;;;;61.85;22.63;;;;;;;-148.88;100.00;77087.56;5076949;28;20027;-81
2023/01/20 06:26:07;;;;;;;62.85;22.73;;;;;;;-148.88;100.00;77089.59;5077832;28;20028;-82
2023/01/20 06:28:33;;;;;;;52.78;20.17;;;;;;;-148.88;100.00;77083.50;5077067;28;20059;-82
2023/01/20 06:31:00;;;;;;;62.75;21.75;;;;;;;-148.88;100.00;77089.59;5076949;28;20062;-82
2023/01/20 06:33:25;;;;;;;58.25;20.00;;;;;;;-148.88;100.00;77083.50;5077662;28;20378;-82
2023/01/20 06:35:55;;;;;;;71.20;22.50;;;;;;;-148.88;100.00;77091.63;5075112;28;20485;-82
2023/01/20 06:38:22;;;;;;;55.10;19.33;;;;;;;-148.88;100.00;77085.53;5075268;28;20111;-81
2023/01/20 06:40:47;;;;;;;58.00;20.00;;;;;;;-148.88;100.00;77091.63;5074897;28;20435;-81
2023/01/20 06:43:12;;;;;;;62.40;21.60;;;;;;;-148.88;100.00;77089.59;5076603;28;20076;-81
2023/01/20 06:45:38;;;;;;;58.65;21.80;;;;;;;-148.88;100.00;77093.66;5074978;28;20049;-82
2023/01/20 06:48:03;;;;;;;56.35;19.95;;;;;;;-148.88;100.00;77095.69;5074876;28;20031;-81
2023/01/20 06:50:28;;;;;;;55.85;20.05;;;;;;;-148.88;100.00;77089.59;5076047;28;20078;-81
2023/01/20 06:52:54;;;;;;;60.13;21.40;;;;;;;-148.88;100.00;77103.81;5074514;28;20023;-82
2023/01/20 06:55:20;;;;;;;64.20;21.70;;;;;;;-148.88;100.00;77107.91;5074361;28;20020;-81
2023/01/20 06:57:45;;;;;;;64.20;22.25;;;;;;;-148.88;100.00;77101.78;5076141;28;20068;-82
2023/01/20 07:00:11;;;;;;;64.95;21.80;;;;;;;-148.88;100.00;77103.81;5075137;28;20036;-82
2023/01/20 07:02:36;;;;;;;58.17;22.52;;;;;;;-148.88;100.00;77101.78;5075014;28;20511;-81
2023/01/20 07:05:03;;;;;;;61.75;23.67;;;;;;;-148.88;100.00;77109.94;5074928;28;20040;-82
2023/01/20 07:07:28;;;;;;;60.35;23.05;;;;;;;-148.88;100.00;77097.72;5075523;28;20358;-81
2023/01/20 07:09:54;;;;;;;54.80;22.15;;;;;;;-148.88;100.00;77107.91;5074950;28;20477;-81
2023/01/20 07:12:19;;;;;;;55.95;20.30;;;;;;;-148.88;100.00;77111.97;5074478;28;20112;-81
2023/01/20 07:14:44;;;;;;;54.10;19.10;;;;;;;-148.88;100.00;77109.94;5076069;28;20112;-81
2023/01/20 07:17:11;;;;;;;58.90;20.63;;;;;;;-148.88;100.00;77122.13;5074364;28;20027;-81
2023/01/20 07:19:36;;;;;;;56.53;20.42;;;;;;;-148.88;100.00;77118.06;5074384;28;20055;-81
2023/01/20 07:22:01;;;;;;;52.20;19.48;;;;;;;-148.88;100.00;77122.13;5074584;28;20020;-81
2023/01/20 07:24:27;;;;;;;59.45;20.45;;;;;;;-148.88;100.00;77120.09;5074244;28;20024;-81
2023/01/20 07:26:52;;;;;;;54.47;19.10;;;;;;;-148.88;100.00;77126.19;5074166;28;20044;-81
2023/01/20 07:29:18;;;;;;;52.17;19.85;;;;;;;-148.88;100.00;77126.19;5074673;28;20039;-81
2023/01/20 07:31:44;;;;;;;59.03;21.10;;;;;;;-148.88;100.00;77136.34;5074436;28;20024;-81
2023/01/20 07:34:09;;;;;;;61.03;21.52;;;;;;;-148.88;100.00;77142.44;5074709;28;20032;-81
2023/01/20 07:36:35;;;;;;;58.45;19.98;;;;;;;-148.88;100.00;77130.25;5074306;28;20024;-81
2023/01/20 07:39:00;;;;;;;67.57;21.92;;;;;;;-148.88;100.00;77146.50;5075979;28;20033;-81
2023/01/20 07:41:25;;;;;;;63.17;22.98;;;;;;;-148.88;100.00;77150.56;5075669;28;20020;-81
2023/01/20 07:43:52;;;;;;;55.60;21.23;;;;;;;-148.88;100.00;77150.56;5074598;28;20088;-81
2023/01/20 07:46:18;;;;;;;61.38;21.88;;;;;;;-148.88;100.00;77156.66;5075853;28;20021;-81
2023/01/20 07:48:43;;;;;;;60.15;19.55;;;;;;;-148.88;100.00;77154.63;5074943;28;20420;-81
2023/01/20 07:51:12;;;;;;;48.78;19.08;;;;;;;-148.88;100.00;77150.56;5072745;28;20482;-81
2023/01/20 07:53:48;;;;;;;65.07;21.58;;;;;;;-148.88;100.00;77170.88;5074019;28;20036;-81
2023/01/20 07:56:22;;;;;;;68.40;21.27;;;;;;;-148.88;100.00;77174.94;5073700;28;20020;-81
2023/01/20 07:58:49;;;;;;;56.25;19.80;;;;;;;-148.88;100.00;77176.97;5073037;28;20020;-81
2023/01/20 08:01:21;;;;;;;59.95;19.85;;;;;;;-148.88;100.00;77166.81;5074422;28;20078;-81
2023/01/20 08:03:47;;;;;;;59.35;20.10;;;;;;;-148.88;100.00;77166.81;5073290;28;20432;-81
2023/01/20 08:06:14;;;;;;;53.88;20.45;;;;;;;-148.88;100.00;77168.84;5073132;28;20027;-81
2023/01/20 08:08:40;;;;;;;56.63;20.90;;;;;;;-148.88;100.00;77176.97;5074340;28;20042;-81
2023/01/20 08:11:07;;;;;;;56.80;19.58;;;;;;;-148.88;100.00;77179.00;5073249;28;20024;-81
2023/01/20 08:13:32;;;;;;;60.95;18.98;;;;;;;-148.88;100.00;77179.00;5073489;28;20545;-81
2023/01/20 08:16:00;;;;;;;60.55;20.83;;;;;;;-148.88;100.00;77183.06;5073031;28;20055;-81
2023/01/20 08:18:25;;;;;;;55.33;18.95;;;;;;;-148.88;100.00;77174.94;5073367;28;20031;-82
2023/01/20 08:20:50;;;;;;;57.80;19.98;;;;;;;-148.88;100.00;77187.13;5075850;28;20033;-81
2023/01/20 08:23:16;;;;;;;53.00;20.42;;;;;;;-148.88;100.00;77185.09;5073627;28;20101;-81
2023/01/20 08:25:41;;;;;;;56.13;20.90;;;;;;;-148.88;100.00;77199.31;5072431;28;20020;-81
2023/01/20 08:28:07;;;;;;;59.42;20.80;;;;;;;-148.88;100.00;77195.25;5074044;28;20482;-81
2023/01/20 08:30:32;;;;;;;55.70;19.98;;;;;;;-148.88;100.00;77199.31;5075453;28;20111;-81
2023/01/20 08:32:57;;;;;;;57.45;19.88;;;;;;;-148.88;100.00;77199.31;5076350;28;20020;-81
2023/01/20 08:35:23;;;;;;;55.53;19.52;;;;;;;-148.88;100.00;77199.31;5076623;28;20033;-81
2023/01/20 08:37:48;;;;;;;55.42;20.25;;;;;;;-148.88;100.00;77191.19;5076246;28;20024;-81
2023/01/20 08:40:14;;;;;;;53.92;20.02;;;;;;;-148.88;100.00;77193.22;5076834;28;20561;-81
2023/01/20 08:42:39;;;;;;;61.13;20.13;;;;;;;-148.88;100.00;77195.25;5077959;28;20032;-81
2023/01/20 08:45:06;;;;;;;51.03;18.35;;;;;;;-148.88;100.00;77191.19;5078388;28;20032;-81
2023/01/20 08:47:35;;;;;;;52.13;18.52;;;;;;;-148.88;100.00;77189.16;5076589;28;20416;-81
2023/01/20 08:50:01;;;;;;;51.60;19.20;;;;;;;-148.88;100.00;77185.09;5077025;28;20029;-81
2023/01/20 08:52:27;;;;;;;53.50;19.75;;;;;;;-148.88;100.00;77187.13;5077182;28;20531;-81
2023/01/20 08:54:52;;;;;;;57.10;20.15;;;;;;;-148.88;100.00;77191.19;5077369;28;20024;-81
2023/01/20 08:57:18;;;;;;;49.42;18.90;;;;;;;-148.88;100.00;77191.19;5077768;28;20028;-81
2023/01/20 08:59:45;;;;;;;45.92;17.88;;;;;;;-148.88;100.00;77193.22;5078519;28;20150;-81
2023/01/20 09:02:10;;;;;;;52.05;21.13;;;;;;;-148.88;100.00;77195.25;5075486;28;20029;-81
2023/01/20 09:04:36;;;;;;;61.22;20.17;;;;;;;-148.88;100.00;77191.19;5076218;28;20119;-81
2023/01/20 09:07:02;;;;;;;61.20;22.60;;;;;;;-148.88;100.00;77189.16;5075605;28;20024;-81
2023/01/20 09:09:28;;;;;;;57.65;20.83;;;;;;;-148.88;100.00;77183.06;5076134;28;20448;-81
2023/01/20 09:11:53;;;;;;;55.85;19.80;;;;;;;-148.88;100.00;77168.84;5076194;28;20021;-81
2023/01/20 09:14:20;;;;;;;69.20;21.10;;;;;;;-148.88;100.00;77176.97;5075545;28;20033;-81
2023/01/20 09:16:46;;;;;;;60.75;20.88;;;;;;;-148.88;100.00;77170.88;5076092;28;20021;-81
2023/01/20 09:19:11;;;;;;;61.78;21.75;;;;;;;-148.88;100.00;77176.97;5075847;28;20386;-81
2023/01/20 09:21:37;;;;;;;51.83;18.95;;;;;;;-148.88;100.00;77166.81;5075634;28;20016;-81
2023/01/20 09:24:02;;;;;;;57.53;19.90;;;;;;;-148.88;100.00;77164.78;5077727;28;20047;-81
2023/01/20 09:26:37;;;;;;;53.20;19.33;;;;;;;-148.88;100.00;77172.91;5076121;28;20021;-81
2023/01/20 09:29:14;;;;;;;59.60;20.92;;;;;;;-148.88;100.00;77172.91;5076772;28;20032;-82
2023/01/20 09:31:43;;;;;;;69.95;22.65;;;;;;;-148.88;100.00;77174.94;5076906;28;20048;-82
2023/01/20 09:34:09;;;;;;;68.30;22.17;;;;;;;-148.88;100.00;77162.75;5078495;28;20032;-81
2023/01/20 09:36:35;;;;;;;50.78;20.05;;;;;;;-148.88;100.00;77166.81;5075404;28;20044;-81
2023/01/20 09:44:41;;;;;;;;;;;;;;;-148.88;100.00;77164.78;5053207;28;19971;-81
2023/01/20 09:47:19;;;;;;;54.92;18.13;;;;;;;-148.88;100.00;77156.66;5075050;28;20276;-81
2023/01/20 09:53:04;;;;;;;43.55;17.33;;;;;;;-148.88;100.00;77166.81;5076646;28;20170;-81
2023/01/20 09:55:41;;;;;;;49.13;16.90;;;;;;;-148.88;100.00;77164.78;5074988;28;20380;-81
2023/01/20 09:58:07;;;;;;;52.00;17.75;;;;;;;-148.88;100.00;77158.69;5076771;28;20036;-81
2023/01/20 10:00:34;;;;;;;45.93;17.83;;;;;;;-148.88;100.00;77154.63;5076923;28;20044;-82
2023/01/20 10:03:16;;;;;;;47.58;17.75;;;;;;;-148.88;100.00;77158.69;5077462;28;20687;-81
2023/01/20 10:05:43;;;;;;;47.47;16.10;;;;;;;-148.88;100.00;77152.59;5076629;28;20031;-81
2023/01/20 10:08:16;;;;;;;46.65;17.77;;;;;;;-148.88;100.00;77152.59;5076179;28;20032;-81
2023/01/20 10:10:47;;;;;;;48.28;16.98;;;;;;;-148.88;100.00;77146.50;5076326;28;20020;-81
2023/01/20 10:13:33;;;;;;;42.40;16.65;;;;;;;-148.88;100.00;77126.19;5075409;28;20058;-81
2023/01/20 10:16:03;;;;;;;39.35;15.25;;;;;;;-148.88;100.00;77109.94;5074632;28;20520;-81
2023/01/20 10:18:42;;;;;;;40.45;15.27;;;;;;;-148.88;100.00;77095.69;5075811;28;20028;-81
2023/01/20 10:21:41;;;;;;;41.90;14.50;;;;;;;-148.88;100.00;77071.31;5074541;28;20056;-81
2023/01/20 10:24:14;;;;;;;43.65;14.50;;;;;;;-148.88;100.00;77069.28;5074653;28;20028;-81
2023/01/20 10:26:53;;;;;;;51.22;13.15;;;;;;;-148.88;100.00;77044.91;5074903;28;20145;-81
2023/01/20 10:29:26;;;;;;;32.85;13.18;;;;;;;-148.88;100.00;77044.91;5076237;28;20037;-81
2023/01/20 10:32:00;;;;;;;36.22;14.35;;;;;;;-148.88;100.00;77036.78;5074770;28;20382;-81
2023/01/20 10:34:32;;;;;;;33.67;13.07;;;;;;;-148.88;100.00;77022.56;5074698;28;20460;-81
2023/01/20 10:37:05;;;;;;;30.52;12.60;;;;;;;-148.88;100.00;77012.41;5075193;28;20074;-81
2023/01/20 10:39:42;;;;;;;32.85;12.88;;;;;;;-148.88;100.00;76992.06;5059243;28;20052;-81
2023/01/20 10:42:15;;;;;;;26.75;11.55;;;;;;;-148.88;99.15;77006.31;5076230;28;20054;-81
2023/01/20 10:44:41;;;;;;;28.10;11.68;;;;;;;-148.88;98.17;77020.53;5075098;28;20033;-81
2023/01/20 10:47:43;;;;;;;24.70;11.48;;;;;;;-148.88;98.49;77028.66;5075486;28;20029;-81
2023/01/20 10:50:27;;;;;;;22.48;9.52;;;;;;;-148.88;98.25;76988.00;5074360;28;20032;-81
2023/01/20 10:53:15;;;;;;;;;;;;;;;-148.88;96.71;77024.59;5073532;28;20021;-82
2023/01/20 10:56:09;;;;;;;26.20;10.63;;;;;;;-148.88;97.17;77028.66;5074125;28;20258;-81
2023/01/20 10:58:36;;;;;;;25.02;11.20;;;;;;;-148.88;98.31;77002.22;5074232;28;20347;-81
2023/01/20 11:01:07;;;;;;;27.92;10.77;;;;;;;-148.88;96.01;77020.53;5073912;28;20036;-81
2023/01/20 11:03:43;;;;;;;26.27;9.52;;;;;;;-148.88;97.59;77024.59;5074295;28;20036;-81
2023/01/20 11:06:21;;;;;;;29.55;11.15;;;;;;;-148.88;96.91;77020.53;5074052;28;20056;-81
2023/01/20 11:08:47;;;;;;;26.65;10.95;;;;;;;-148.88;96.76;77024.59;5075643;28;20036;-81
2023/01/20 11:11:24;;;;;;;28.77;12.00;;;;;;;-148.88;96.99;77042.88;5074254;28;20370;-81
2023/01/20 11:13:50;;;;;;;25.67;10.55;;;;;;;-148.88;97.11;77036.78;5075064;28;20024;-81